Currently 56°F in Beaumont, California, USA
56°F
56°F / 48°F
1 mph N
0.00"
Wednesday, April 26, 2017 6:47 AM PDT

Beaumont, California Weather Summary
Last 36 Hours

Temperature Winds Hourly Humidity Dewpoint
Time Report Norm Report Norm Max Gusts Precip. Rpt. Norm Rpt. Norm Pressure
1,2Wed 06:47 AM  55.6°F  54°F  1 mph N  3 mph  8 mph  0.00"  50%  65%  36°F  42°F  29.86"
Wed 06:00 AM  49.3°F  53°F  3 mph NW  3 mph  3 mph  0.00"  70%  66%  40°F  42°F  29.86"
Wed 05:00 AM  48.7°F  53°F  2 mph W  3 mph  6 mph  0.00"  73%  66%  40°F  42°F  29.85"
3Wed 04:31 AM  48.2°F  53°F  4 mph W  3 mph  6 mph  ----  76%  66%  41°F  42°F  29.87"
Wed 04:00 AM  49.5°F  54°F  1 mph W  3 mph  6 mph  0.00"  71%  67%  40°F  42°F  29.86"
Wed 03:00 AM  49.5°F  54°F  3 mph W  3 mph  6 mph  0.00"  69%  67%  39°F  43°F  29.86"
Wed 02:00 AM  49.5°F  55°F  3 mph W  2 mph  5 mph  0.00"  72%  66%  40°F  43°F  29.86"
Wed 01:00 AM  49.6°F  55°F  2 mph W  3 mph  5 mph  0.00"  73%  67%  41°F  43°F  29.88"
Wed 12:00 AM  49.6°F  55°F  3 mph W  2 mph  5 mph  0.00"  72%  66%  41°F  44°F  29.89"
Tue 11:00 PM  50.2°F  57°F  3 mph W  3 mph  5 mph  0.00"  72%  63%  41°F  44°F  29.90"
Tue 10:00 PM  50.7°F  58°F  2 mph NW  3 mph  5 mph  0.00"  68%  61%  40°F  44°F  29.90"
Tue 09:00 PM  53.8°F  60°F  2 mph NW  4 mph  7 mph  0.00"  59%  58%  39°F  45°F  29.89"
Tue 08:00 PM  55.0°F  62°F  1 mph SW  4 mph  8 mph  0.00"  58%  54%  40°F  45°F  29.86"
Tue 07:00 PM  57.0°F  65°F  2 mph SW  5 mph  12 mph  0.00"  55%  50%  40°F  45°F  29.85"
Tue 06:00 PM  59.2°F  68°F  4 mph SW  5 mph  15 mph  0.00"  53%  45%  41°F  45°F  29.84"
Tue 05:00 PM  60.4°F  70°F  5 mph S  6 mph  13 mph  0.00"  52%  41%  42°F  44°F  29.84"
Tue 04:00 PM  60.1°F  71°F  5 mph W  6 mph  13 mph  0.00"  52%  39%  42°F  44°F  29.84"
Tue 03:00 PM  58.6°F  71°F  3 mph S  6 mph  12 mph  0.00"  59%  39%  44°F  44°F  29.86"
Tue 02:00 PM  58.3°F  70°F  3 mph NW  6 mph  12 mph  0.00"  58%  40%  43°F  44°F  29.85"
Tue 01:00 PM  59.4°F  69°F  4 mph S  6 mph  12 mph  0.00"  58%  42%  44°F  44°F  29.88"
Tue 12:00 PM  56.8°F  67°F  3 mph SW  5 mph  10 mph  0.00"  63%  45%  44°F  44°F  29.89"
Tue 11:00 AM  54.0°F  65°F  5 mph SW  6 mph  13 mph  0.00"  72%  48%  45°F  44°F  29.88"
Tue 10:00 AM  52.7°F  63°F  2 mph S  4 mph  7 mph  0.00"  78%  53%  46°F  45°F  29.86"
Tue 09:00 AM  47.8°F  60°F  3 mph S  4 mph  8 mph  0.00"  91%  57%  45°F  45°F  29.85"
Tue 08:00 AM  46.0°F  58°F  2 mph SW  3 mph  7 mph  0.00"  96%  60%  45°F  44°F  29.85"
Tue 07:00 AM  45.9°F  55°F  2 mph SW  2 mph  12 mph  0.00"  96%  62%  45°F  42°F  29.82"
Tue 06:00 AM  45.3°F  54°F  3 mph SW  3 mph  9 mph  0.00"  95%  63%  44°F  41°F  29.79"
Tue 05:00 AM  45.1°F  54°F  3 mph W  3 mph  13 mph  0.00"  96%  64%  44°F  41°F  29.79"
Tue 04:00 AM  45.1°F  54°F  5 mph W  3 mph  16 mph  0.00"  95%  64%  44°F  42°F  29.78"
Tue 03:00 AM  45.1°F  54°F  6 mph SW  3 mph  12 mph  0.00"  94%  64%  43°F  42°F  29.79"
Tue 02:00 AM  45.9°F  55°F  3 mph S  2 mph  12 mph  0.00"  92%  64%  44°F  43°F  29.80"
Tue 01:00 AM  47.1°F  55°F  3 mph SW  2 mph  14 mph  0.00"  89%  65%  44°F  43°F  29.82"
Tue 12:00 AM  48.9°F  55°F  9 mph SW  2 mph  12 mph  0.00"  90%  65%  46°F  44°F  29.81"
Mon 11:00 PM  49.5°F  57°F  5 mph SW  3 mph  15 mph  0.00"  90%  62%  47°F  44°F  29.81"
Mon 10:00 PM  50.5°F  59°F  4 mph W  3 mph  12 mph  0.00"  90%  60%  48°F  44°F  29.82"
Mon 09:00 PM  51.6°F  60°F  6 mph S  4 mph  14 mph  0.00"  87%  57%  48°F  44°F  29.82"
Mon 08:00 PM  53.1°F  62°F  4 mph S  4 mph  12 mph  0.00"  83%  53%  48°F  44°F  29.81"
Mon 07:00 PM  55.2°F  65°F  4 mph SW  4 mph  15 mph  0.00"  77%  48%  48°F  45°F  29.80"

  1. Current weather data. No green row appears if the current weather data is also the high or low for the current day.
  2. High temperature for the current day.
  3. Low temperature for the current day.

The Beaumont, California weather pages are a service of WeatherCurrents. Cherry Valley is located in northern Riverside County, California, a community of the northern part of Beaumont, along the Interstate 10 highway, in the San Gorgonio pass area, between the communities of Calimesa, Banning.
Copyright ©Wed Apr 26 06:49:21 PDT 2017  WeatherCurrents. All rights reserved. - Submit questions and comments - Privacy Policy

This page automatically refreshes every 10 minutes.